Observations for SEATTLE-TACOMA INTL, WA (SEA)

KSEA 230453Z 14007KT 10SM SCT031 05/03 A3027 RMK AO2 SLP258 T00500028   
KSEA 230427Z 13008KT 10SM SCT027 06/03 A3027 RMK AO2 T00560028
KSEA 230408Z 14006KT 10SM BKN027 06/03 A3027 RMK AO2 T00560028
KSEA 230353Z 14006KT 9SM BKN030 06/03 A3028 RMK AO2 SLP261 T00610033
KSEA 230253Z 12006KT 10SM SCT026 SCT200 06/03 A3027 RMK AO2 SLP261 T00560028 58004  
KSEA 230153Z 18007KT 10SM FEW033 SCT070 SCT200 06/02 A3028 RMK AO2 SLP261 T00560022 
KSEA 230053Z 20008KT 10SM FEW024 SCT033 BKN200 07/03 A3029 RMK AO2 SLP265 T00670028 
KSEA 222353Z 20008KT 10SM SCT027 BKN120 BKN200 08/03 A3029 RMK AO2 SLP264 T00830033 10083 20061 51007   
KSEA 222253Z 20010KT 10SM FEW016 SCT038 BKN120 BKN200 07/03 A3028 RMK AO2 SLP262 T00720028  
KSEA 222153Z 21011KT 10SM FEW017 SCT032 BKN120 BKN200 07/03 A3028 RMK AO2 SLP261 T00720033  
KSEA 222053Z 20014KT 10SM FEW013 SCT026 BKN130 BKN200 08/04 A3026 RMK AO2 SLP257 T00780039 51016
KSEA 221953Z 20014G22KT 10SM SCT016 SCT024 BKN100 BKN200 07/04 A3026 RMK AO2 SLP254 T00720039   
KSEA 221853Z 19013G19KT 10SM FEW023 SCT031 BKN120 BKN200 07/04 A3024 RMK AO2 SLP248 T00720039   
KSEA 221753Z 20016KT 10SM FEW009 SCT024 BKN110 BKN200 06/04 A3022 RMK AO2 SLP240 60025 T00610039 10061 20044 53025  
KSEA 221653Z 18012KT 10SM FEW009 SCT025 SCT100 BKN200 05/04 A3019 RMK AO2 SLP231 T00500039  
KSEA 221553Z 18011KT 10SM FEW009 SCT029 BKN100 04/03 A3015 RMK AO2 SLP220 T00440033 
KSEA 221453Z 19011KT 10SM BKN032 BKN055 OVC065 04/03 A3014 RMK AO2 RAE45 SLP215 P0012 60025 T00440033 52015 
KSEA 221353Z 21013KT 3SM -RA BR OVC029 05/04 A3013 RMK AO2 SLP212 P0011 T00500039   
KSEA 221316Z 19008KT 4SM RA BR FEW014 OVC028 06/04 A3012 RMK AO2 P0002 T00560039
KSEA 221253Z 18014KT 6SM -RA BR FEW017 OVC032 06/04 A3011 RMK AO2 RAB45 SLP204 P0002 T00560039  
KSEA 221153Z 17010KT 10SM SCT017 BKN030 06/04 A3010 RMK AO2 SLP200 60011 70022 T00610039 10067 20056 51013  
KSEA 221053Z 16007KT 7SM FEW008 SCT026 OVC036 06/04 A3009 RMK AO2 RAE52 SLP198 P0004 T00560044  
KSEA 221042Z 16007KT 7SM -RA FEW007 BKN024 OVC034 06/04 A3009 RMK AO2 P0004 T00560044
KSEA 220953Z 21006KT 7SM -RA OVC025 06/04 A3008 RMK AO2 SLP193 P0005 T00560044  
KSEA 220922Z 20009KT 7SM -RA BKN027 BKN031 OVC042 06/04 A3007 RMK AO2 P0000 T00560039
KSEA 220853Z 19006KT 9SM -RA SCT028 BKN036 OVC050 06/04 A3006 RMK AO2 RAB04E19B32 SLP187 P0002 60002 T00560039 51017
KSEA 220822Z 19009KT 10SM BKN027 OVC035 06/03 A3005 RMK AO2 RAB04E19 P0001 T00610033
KSEA 220753Z 19013KT 10SM BKN037 BKN043 OVC050 07/02 A3004 RMK AO2 SLP181 T00670022 401060039   
KSEA 220653Z 18010KT 10SM SCT037 BKN055 07/03 A3003 RMK AO2 SLP178 T00670028
KSEA 220553Z 17010KT 10SM FEW029 SCT070 06/03 A3001 RMK AO2 SLP169 60009 T00610028 10083 20039 53015
KSEA 220508Z 17011KT 10SM FEW029 SCT070 06/03 A2999 RMK AO2 T00560028
KSEA 220453Z 17011KT 10SM BKN029 06/03 A2999 RMK AO2 SLP163 T00560033